createdAt,value
2022-12-25T00:02:54.543Z,17
2022-12-25T00:05:56.366Z,13.4
2022-12-25T00:08:58.340Z,18.3
2022-12-25T00:12:00.328Z,18.6
2022-12-25T00:15:02.265Z,20.7
2022-12-25T00:18:04.237Z,16.9
2022-12-25T00:21:06.195Z,18.5
2022-12-25T00:24:08.140Z,14.3
2022-12-25T00:27:10.107Z,17.3
2022-12-25T00:30:12.094Z,18
2022-12-25T00:33:14.068Z,15.9
2022-12-25T00:36:15.984Z,18.4
2022-12-25T00:39:17.962Z,17.2
2022-12-25T00:42:19.917Z,16.3
2022-12-25T00:45:21.917Z,20.5
2022-12-25T00:48:23.865Z,23
2022-12-25T00:51:25.822Z,20.4
2022-12-25T00:54:27.785Z,19.2
2022-12-25T00:57:29.762Z,16.8
2022-12-25T01:00:31.802Z,20.6
2022-12-25T01:03:33.645Z,16.3
2022-12-25T01:06:35.601Z,14.6
2022-12-25T01:09:37.547Z,14.8
2022-12-25T01:12:39.582Z,18.6
2022-12-25T01:15:41.526Z,15
2022-12-25T01:18:43.461Z,14.1
2022-12-25T01:21:45.413Z,12
2022-12-25T01:24:47.367Z,16.2
2022-12-25T01:27:49.284Z,14
2022-12-25T01:30:51.266Z,16.9
2022-12-25T01:33:53.226Z,13.7
2022-12-25T01:36:55.208Z,18.2
2022-12-25T01:39:57.136Z,12.9
2022-12-25T01:42:59.095Z,18
2022-12-25T01:46:01.115Z,13
2022-12-25T01:49:03.030Z,16.4
2022-12-25T01:52:04.974Z,10.7
2022-12-25T01:55:06.920Z,14.2
2022-12-25T01:58:08.892Z,11.6
2022-12-25T02:01:10.982Z,13.9
2022-12-25T02:04:12.871Z,16.1
2022-12-25T02:07:14.808Z,14.8
2022-12-25T02:10:16.771Z,15
2022-12-25T02:13:18.778Z,9.7
2022-12-25T02:16:20.810Z,10.9
2022-12-25T02:19:22.662Z,11.6
2022-12-25T02:22:24.631Z,12
2022-12-25T02:25:26.623Z,10.9
2022-12-25T02:28:28.550Z,10.3
2022-12-25T02:31:30.544Z,18.8
2022-12-25T02:37:34.466Z,17.3
2022-12-25T02:40:36.396Z,14.6
2022-12-25T02:43:38.394Z,13.5
2022-12-25T02:46:40.316Z,11.8
2022-12-25T02:49:42.291Z,13
2022-12-25T02:52:44.265Z,11.5
2022-12-25T02:55:46.200Z,10.4
2022-12-25T02:58:48.183Z,12.1
2022-12-25T03:01:50.212Z,11.1
2022-12-25T03:04:52.094Z,14.6
2022-12-25T03:07:54.103Z,11
2022-12-25T03:10:56.036Z,15.7
2022-12-25T03:13:58.032Z,10.2
2022-12-25T03:17:00.012Z,9.5
2022-12-25T03:20:01.892Z,9.3
2022-12-25T03:23:03.849Z,11.2
2022-12-25T03:26:05.798Z,10.4
2022-12-25T03:29:07.786Z,12.4
2022-12-25T03:32:09.715Z,11
2022-12-25T03:35:11.697Z,9.1
2022-12-25T03:38:13.637Z,10.2
2022-12-25T03:41:15.613Z,8
2022-12-25T03:44:17.563Z,12.9
2022-12-25T03:47:19.548Z,12.5
2022-12-25T03:50:21.502Z,13.4
2022-12-25T03:53:23.445Z,12.5
2022-12-25T03:56:25.458Z,9.1
2022-12-25T03:59:27.407Z,16.1
2022-12-25T04:02:29.610Z,16.3
2022-12-25T04:05:31.316Z,16.3
2022-12-25T04:08:33.285Z,15.6
2022-12-25T04:11:35.234Z,13.2
2022-12-25T04:14:37.207Z,13.2
2022-12-25T04:17:39.165Z,18.8
2022-12-25T04:20:41.095Z,17.6
2022-12-25T04:23:43.104Z,11.1
2022-12-25T04:26:45.026Z,11.4
2022-12-25T04:29:46.996Z,9
2022-12-25T04:32:48.956Z,10.2
2022-12-25T04:35:50.913Z,10.8
2022-12-25T04:38:52.901Z,10.4
2022-12-25T04:41:54.867Z,11.5
2022-12-25T04:44:56.847Z,8.7
2022-12-25T04:47:58.762Z,10.2
2022-12-25T04:51:00.735Z,13.3
2022-12-25T04:54:02.706Z,11.1
2022-12-25T04:57:04.723Z,9.7
2022-12-25T05:00:06.622Z,10.4
2022-12-25T05:03:08.675Z,11.8
2022-12-25T05:06:10.561Z,12.9
2022-12-25T05:09:12.514Z,13.3
2022-12-25T05:12:14.472Z,10.9
2022-12-25T05:15:16.434Z,10.7
2022-12-25T05:18:18.401Z,12.2
2022-12-25T05:21:20.387Z,13.8
2022-12-25T05:24:22.317Z,14.4
2022-12-25T05:27:24.284Z,12.9
2022-12-25T05:30:26.268Z,10.3
2022-12-25T05:33:28.276Z,9.6
2022-12-25T05:36:30.185Z,12.4
2022-12-25T05:39:32.150Z,9
2022-12-25T05:42:34.156Z,13.1
2022-12-25T05:45:36.116Z,12.7
2022-12-25T05:48:38.069Z,10.3
2022-12-25T05:51:40.058Z,10.5
2022-12-25T05:54:42.013Z,11.3
2022-12-25T05:57:44.005Z,9.8
2022-12-25T06:00:45.953Z,14.4
2022-12-25T06:03:48.003Z,12.7
2022-12-25T06:06:49.872Z,15.9
2022-12-25T06:09:51.843Z,8.7
2022-12-25T06:12:53.792Z,9.2
2022-12-25T06:15:55.795Z,10.2
2022-12-25T06:18:57.722Z,8.9
2022-12-25T06:21:59.688Z,12.5
2022-12-25T06:25:01.669Z,9.6
2022-12-25T06:28:03.643Z,9.4
2022-12-25T06:31:05.622Z,10.7
2022-12-25T06:34:07.548Z,10.7
2022-12-25T06:37:09.512Z,13.3
2022-12-25T06:40:11.492Z,11.5
2022-12-25T06:43:13.484Z,8.5
2022-12-25T06:46:16.636Z,13.6
2022-12-25T06:49:17.379Z,12.6
2022-12-25T06:52:19.328Z,9.6
2022-12-25T06:55:21.301Z,10
2022-12-25T06:58:23.285Z,14.2
2022-12-25T07:01:25.354Z,9.3
2022-12-25T07:04:27.338Z,14.7
2022-12-25T07:07:29.201Z,11.1
2022-12-25T07:10:31.158Z,8.8
2022-12-25T07:13:33.132Z,8.8
2022-12-25T07:16:35.125Z,8.1
2022-12-25T07:19:41.168Z,9.4
2022-12-25T07:22:38.983Z,12.6
2022-12-25T07:25:40.941Z,12.7
2022-12-25T07:28:42.939Z,14.7
2022-12-25T07:31:44.995Z,11.9
2022-12-25T07:34:46.840Z,11.4
2022-12-25T07:37:48.829Z,9.4
2022-12-25T07:40:50.776Z,9.5
2022-12-25T07:43:52.757Z,9.6
2022-12-25T07:46:54.726Z,7.7
2022-12-25T07:49:56.729Z,7.8
2022-12-25T07:52:58.699Z,7.9
2022-12-25T07:56:00.691Z,7.6
2022-12-25T07:59:02.658Z,9
2022-12-25T08:02:04.870Z,7.1
2022-12-25T08:05:06.580Z,9.4
2022-12-25T08:08:08.748Z,7.8
2022-12-25T08:11:10.687Z,5.4
2022-12-25T08:14:12.707Z,6.1
2022-12-25T08:17:14.704Z,8.7
2022-12-25T08:20:16.602Z,4.9
2022-12-25T08:23:18.577Z,10.2
2022-12-25T08:26:20.525Z,9.8
2022-12-25T08:29:22.481Z,8.6
2022-12-25T08:32:24.459Z,7.2
2022-12-25T08:35:26.383Z,4.7
2022-12-25T08:38:28.378Z,6
2022-12-25T08:41:30.348Z,7.4
2022-12-25T08:44:32.261Z,9
2022-12-25T08:47:34.226Z,10.8
2022-12-25T08:50:36.203Z,4.3
2022-12-25T08:53:38.223Z,7.6
2022-12-25T08:56:40.136Z,9
2022-12-25T08:59:42.086Z,8.2
2022-12-25T09:02:44.289Z,7.7
2022-12-25T09:05:46.019Z,5.5
2022-12-25T09:08:48.955Z,8.7
2022-12-25T09:11:49.975Z,7.6
2022-12-25T09:14:51.897Z,4.4
2022-12-25T09:17:53.882Z,5.5
2022-12-25T09:20:55.814Z,10.7
2022-12-25T09:23:57.797Z,10.5
2022-12-25T09:26:59.759Z,6.3
2022-12-25T09:30:01.792Z,4.6
2022-12-25T09:33:03.753Z,5.4
2022-12-25T09:36:05.681Z,6.7
2022-12-25T09:39:07.627Z,6.9
2022-12-25T09:42:09.603Z,7.6
2022-12-25T09:45:11.594Z,4.8
2022-12-25T09:48:13.521Z,6.1
2022-12-25T09:51:15.494Z,3.6
2022-12-25T09:54:17.454Z,6.7
2022-12-25T09:57:19.493Z,4
2022-12-25T10:00:21.419Z,6.8
2022-12-25T10:03:23.464Z,7.3
2022-12-25T10:06:25.601Z,7.9
2022-12-25T10:09:27.293Z,4.6
2022-12-25T10:12:29.254Z,4.7
2022-12-25T10:15:31.328Z,6.1
2022-12-25T10:18:33.187Z,6.1
2022-12-25T10:21:35.150Z,7.7
2022-12-25T10:24:37.172Z,6.9
2022-12-25T10:27:39.119Z,6.9
2022-12-25T10:30:41.128Z,7.2
2022-12-25T10:33:43.057Z,6.2
2022-12-25T10:36:44.991Z,5.5
2022-12-25T10:39:47.248Z,5.5
2022-12-25T10:42:48.907Z,5.3
2022-12-25T10:45:50.893Z,8.4
2022-12-25T10:48:52.859Z,6
2022-12-25T10:51:54.852Z,6.6
2022-12-25T10:54:56.782Z,4.8
2022-12-25T10:57:58.878Z,4
2022-12-25T11:01:00.767Z,5.8
2022-12-25T11:04:02.750Z,3.9
2022-12-25T11:07:04.728Z,5.1
2022-12-25T11:10:06.666Z,4.7
2022-12-25T11:13:08.626Z,5
2022-12-25T11:16:10.782Z,4.5
2022-12-25T11:19:12.588Z,4.6
2022-12-25T11:22:14.530Z,7.2
2022-12-25T11:25:16.513Z,6.1
2022-12-25T11:28:18.462Z,4.3
2022-12-25T11:31:20.890Z,6.7
2022-12-25T11:34:22.374Z,5
2022-12-25T11:37:24.346Z,5.8
2022-12-25T11:40:26.303Z,3.8
2022-12-25T11:43:28.275Z,8.8
2022-12-25T11:46:30.295Z,6.5
2022-12-25T11:49:32.236Z,5.9
2022-12-25T11:52:34.217Z,5
2022-12-25T11:55:36.185Z,5.6
2022-12-25T11:58:38.112Z,5.4
2022-12-25T12:01:40.125Z,9.5
2022-12-25T12:04:42.857Z,12.1
2022-12-25T12:07:44.020Z,8.1
2022-12-25T12:10:46.037Z,6.6
2022-12-25T12:13:47.920Z,5.3
2022-12-25T12:16:49.993Z,4.9
2022-12-25T12:19:51.856Z,4.8
2022-12-25T12:22:53.837Z,6.2
2022-12-25T12:25:55.813Z,7
2022-12-25T12:28:57.773Z,7
2022-12-25T12:31:59.797Z,6.7
2022-12-25T12:35:01.695Z,6.6
2022-12-25T12:38:03.670Z,5.6
2022-12-25T12:41:05.651Z,5.4
2022-12-25T12:44:07.622Z,6.9
2022-12-25T12:47:09.540Z,5.3
2022-12-25T12:50:11.552Z,5.9
2022-12-25T12:53:13.508Z,7.1
2022-12-25T12:56:15.435Z,4.7
2022-12-25T12:59:17.389Z,5.6
2022-12-25T13:02:19.462Z,4.4
2022-12-25T13:05:21.323Z,5.4
2022-12-25T13:08:23.263Z,4.9
2022-12-25T13:11:25.253Z,4.3
2022-12-25T13:14:27.205Z,5.8
2022-12-25T13:17:29.171Z,5.3
2022-12-25T13:20:31.129Z,5.6
2022-12-25T13:23:33.119Z,4.8
2022-12-25T13:26:35.065Z,6
2022-12-25T13:29:37.058Z,6
2022-12-25T13:32:39.050Z,5.8
2022-12-25T13:35:40.983Z,6.6
2022-12-25T13:38:42.926Z,6.3
2022-12-25T13:41:44.897Z,4.6
2022-12-25T13:44:46.832Z,4.7
2022-12-25T13:47:54.845Z,5.2
2022-12-25T13:50:50.840Z,4.1
2022-12-25T13:53:52.733Z,4.5
2022-12-25T13:56:54.670Z,4.1
2022-12-25T13:59:56.623Z,4.3
2022-12-25T14:02:58.689Z,5.2
2022-12-25T14:06:00.551Z,4.1
2022-12-25T14:09:02.519Z,5.9
2022-12-25T14:12:04.460Z,8.1
2022-12-25T14:15:06.415Z,5.2
2022-12-25T14:18:08.368Z,9.2
2022-12-25T14:21:10.319Z,8.1
2022-12-25T14:24:12.281Z,7.7
2022-12-25T14:27:14.259Z,9.2
2022-12-25T14:30:16.204Z,7
2022-12-25T14:33:18.163Z,7.2
2022-12-25T14:36:20.144Z,8
2022-12-25T14:39:22.080Z,9.1
2022-12-25T14:42:24.053Z,4.7
2022-12-25T14:45:26.002Z,6.1
2022-12-25T14:48:27.986Z,8.2
2022-12-25T14:51:29.945Z,7.1
2022-12-25T14:54:31.915Z,7.6
2022-12-25T14:57:33.873Z,9.7
2022-12-25T15:00:35.851Z,7.2
2022-12-25T15:03:37.923Z,6.6
2022-12-25T15:06:39.826Z,6
2022-12-25T15:09:41.718Z,11
2022-12-25T15:12:43.674Z,7.9
2022-12-25T15:15:45.696Z,7.2
2022-12-25T15:18:47.646Z,8.5
2022-12-25T15:21:49.557Z,8.5
2022-12-25T15:24:54.697Z,10.9
2022-12-25T15:27:53.469Z,11.6
2022-12-25T15:30:55.438Z,10.4
2022-12-25T15:33:57.422Z,10.4
2022-12-25T15:36:59.346Z,12.3
2022-12-25T15:40:02.153Z,15
2022-12-25T15:43:11.152Z,12.6
2022-12-25T15:46:05.312Z,13.4
2022-12-25T15:49:07.238Z,11
2022-12-25T15:52:09.185Z,12.3
2022-12-25T15:55:11.142Z,13
2022-12-25T15:58:13.173Z,13.8
2022-12-25T16:01:15.113Z,10.4
2022-12-25T16:04:17.025Z,13.8
2022-12-25T16:07:18.987Z,10.5
2022-12-25T16:10:21.055Z,11.6
2022-12-25T16:13:22.880Z,12.7
2022-12-25T16:16:24.918Z,13.8
2022-12-25T16:19:26.838Z,13.3
2022-12-25T16:22:28.805Z,13.4
2022-12-25T16:25:30.804Z,12.4
2022-12-25T16:28:32.765Z,15
2022-12-25T16:31:34.831Z,14.1
2022-12-25T16:34:36.704Z,16.8
2022-12-25T16:37:38.626Z,13.6
2022-12-25T16:40:40.625Z,13.7
2022-12-25T16:43:42.543Z,16
2022-12-25T16:46:44.567Z,13.8
2022-12-25T16:49:46.529Z,11.6
2022-12-25T16:52:48.480Z,16
2022-12-25T16:55:50.447Z,14.3
2022-12-25T16:58:52.378Z,12.3
2022-12-25T17:01:54.403Z,11.3
2022-12-25T17:04:56.310Z,14.6
2022-12-25T17:07:58.277Z,13.1
2022-12-25T17:11:00.248Z,15.2
2022-12-25T17:14:02.264Z,19.5
2022-12-25T17:17:04.187Z,17.3
2022-12-25T17:20:06.396Z,18.2
2022-12-25T17:23:08.150Z,16.8
2022-12-25T17:26:10.115Z,17.8
2022-12-25T17:29:14.633Z,15.7
2022-12-25T17:32:14.026Z,15.3
2022-12-25T17:35:15.956Z,15.8
2022-12-25T17:38:17.919Z,13.6
2022-12-25T17:41:19.905Z,13.1
2022-12-25T17:44:21.834Z,19.3
2022-12-25T17:47:23.785Z,14.3
2022-12-25T17:50:25.762Z,16.8
2022-12-25T17:53:27.695Z,18.6
2022-12-25T17:56:29.667Z,16.7
2022-12-25T17:59:31.629Z,15.6
2022-12-25T18:02:33.879Z,16.1
2022-12-25T18:05:35.587Z,18.2
2022-12-25T18:08:39.701Z,16.1
2022-12-25T18:11:39.505Z,16.9
2022-12-25T18:14:41.465Z,15.4
2022-12-25T18:17:43.425Z,16.4
2022-12-25T18:20:45.376Z,14.5
2022-12-25T18:23:47.315Z,12.2
2022-12-25T18:26:49.275Z,13.6
2022-12-25T18:29:51.425Z,10.6
2022-12-25T18:32:53.247Z,10.1
2022-12-25T18:35:55.160Z,12
2022-12-25T18:38:57.163Z,13.8
2022-12-25T18:41:59.086Z,12.2
2022-12-25T18:45:01.074Z,9.6
2022-12-25T18:48:03.034Z,9.9
2022-12-25T18:51:04.973Z,7.3
2022-12-25T18:54:06.913Z,8.9
2022-12-25T18:57:08.884Z,8.2
2022-12-25T19:00:10.943Z,16.8
2022-12-25T19:03:12.851Z,12
2022-12-25T19:06:14.763Z,12.3
2022-12-25T19:09:16.729Z,12.5
2022-12-25T19:12:18.675Z,10.4
2022-12-25T19:15:20.656Z,24.4
2022-12-25T19:18:22.630Z,14.9
2022-12-25T19:21:24.606Z,13.1
2022-12-25T19:24:26.557Z,13.6
2022-12-25T19:27:28.543Z,11.9
2022-12-25T19:30:30.494Z,13.7
2022-12-25T19:33:32.471Z,13.3
2022-12-25T19:36:34.443Z,18.7
2022-12-25T19:39:36.451Z,13.1
2022-12-25T19:42:38.374Z,11.3
2022-12-25T19:45:40.325Z,9.6
2022-12-25T19:48:42.323Z,12.6
2022-12-25T19:51:44.329Z,8.8
2022-12-25T19:57:48.180Z,8.6
2022-12-25T20:00:50.184Z,10
2022-12-25T20:03:52.093Z,7.3
2022-12-25T20:06:54.064Z,7.1
2022-12-25T20:09:56.027Z,6.8
2022-12-25T20:12:57.985Z,9.6
2022-12-25T20:15:59.959Z,7.1
2022-12-25T20:19:01.910Z,7.5
2022-12-25T20:22:03.890Z,9.5
2022-12-25T20:25:05.838Z,10.6
2022-12-25T20:28:07.813Z,10.8
2022-12-25T20:31:09.798Z,10.3
2022-12-25T20:34:11.739Z,8.6
2022-12-25T20:37:13.749Z,8.6
2022-12-25T20:40:15.673Z,9.3
2022-12-25T20:43:17.669Z,7.8
2022-12-25T20:46:19.684Z,8.5
2022-12-25T20:49:21.591Z,8.8
2022-12-25T20:52:23.543Z,6.8
2022-12-25T20:55:25.466Z,8.6
2022-12-25T20:58:27.434Z,8.1
2022-12-25T21:01:29.553Z,7.1
2022-12-25T21:04:31.391Z,8.2
2022-12-25T21:07:33.352Z,7.6
2022-12-25T21:10:35.271Z,7.5
2022-12-25T21:13:37.268Z,7.4
2022-12-25T21:16:39.215Z,8.6
2022-12-25T21:19:41.207Z,9.1
2022-12-25T21:22:43.159Z,6.9
2022-12-25T21:25:45.084Z,6.9
2022-12-25T21:28:47.049Z,6.5
2022-12-25T21:31:49.000Z,6.9
2022-12-25T21:34:50.950Z,8.7
2022-12-25T21:37:52.915Z,6.1
2022-12-25T21:40:54.864Z,6.5
2022-12-25T21:43:56.850Z,7.3
2022-12-25T21:46:58.839Z,6.9
2022-12-25T21:50:00.773Z,6
2022-12-25T21:53:02.726Z,18.5
2022-12-25T21:56:04.692Z,10.4
2022-12-25T21:59:06.664Z,9.8
2022-12-25T22:02:08.816Z,9.5
2022-12-25T22:05:10.621Z,9.6
2022-12-25T22:08:12.589Z,9
2022-12-25T22:11:14.504Z,8.4
2022-12-25T22:14:16.492Z,6.3
2022-12-25T22:17:18.487Z,8
2022-12-25T22:20:20.479Z,8.6
2022-12-25T22:23:22.396Z,7.7
2022-12-25T22:26:24.350Z,7.6
2022-12-25T22:29:26.312Z,8.8
2022-12-25T22:32:28.322Z,7.4
2022-12-25T22:35:30.255Z,7.8
2022-12-25T22:38:32.206Z,6.6
2022-12-25T22:41:34.160Z,6.3
2022-12-25T22:44:36.130Z,6.2
2022-12-25T22:47:38.172Z,6.2
2022-12-25T22:50:40.036Z,5.8
2022-12-25T22:53:41.999Z,6.4
2022-12-25T22:56:43.980Z,7
2022-12-25T22:59:45.942Z,5.3
2022-12-25T23:02:48.045Z,7.7
2022-12-25T23:05:49.863Z,8.2
2022-12-25T23:08:51.829Z,6.6
2022-12-25T23:11:53.805Z,5
2022-12-25T23:14:55.743Z,6.2
2022-12-25T23:17:57.698Z,5.5
2022-12-25T23:20:59.682Z,6.2
2022-12-25T23:24:01.680Z,6.1
2022-12-25T23:27:03.581Z,4.9
2022-12-25T23:30:05.589Z,5.9
2022-12-25T23:33:07.602Z,6
2022-12-25T23:36:09.469Z,5.8
2022-12-25T23:39:11.464Z,5.3
2022-12-25T23:42:13.431Z,5
2022-12-25T23:45:15.386Z,6
2022-12-25T23:48:17.360Z,4.8
2022-12-25T23:51:19.341Z,5.7
2022-12-25T23:54:21.282Z,7.7
2022-12-25T23:57:23.199Z,5.7
